createdAt,value
2023-08-13T00:02:13.313Z,20.62
2023-08-13T00:04:43.252Z,20.76
2023-08-13T00:07:12.344Z,20.81
2023-08-13T00:09:42.746Z,20.84
2023-08-13T00:12:11.556Z,20.93
2023-08-13T00:14:40.131Z,20.63
2023-08-13T00:17:09.348Z,20.75
2023-08-13T00:19:37.726Z,20.75
2023-08-13T00:22:11.194Z,20.89
2023-08-13T00:24:39.458Z,20.57
2023-08-13T00:27:07.844Z,21.03
2023-08-13T00:29:38.898Z,20.94
2023-08-13T00:32:07.754Z,20.92
2023-08-13T00:34:36.097Z,21.18
2023-08-13T00:37:05.923Z,21.12
2023-08-13T00:39:34.693Z,21.23
2023-08-13T00:42:02.999Z,21.36
2023-08-13T00:44:31.376Z,21.24
2023-08-13T00:46:59.894Z,20.91
2023-08-13T00:49:28.415Z,20.73
2023-08-13T00:51:57.802Z,20.64
2023-08-13T00:54:27.800Z,20.73
2023-08-13T00:56:56.490Z,21.10
2023-08-13T00:59:25.938Z,20.93
2023-08-13T01:01:54.457Z,20.84
2023-08-13T01:04:22.843Z,20.98
2023-08-13T01:07:03.540Z,20.71
2023-08-13T01:09:43.532Z,20.63
2023-08-13T01:12:24.577Z,20.93
2023-08-13T01:15:08.955Z,20.76
2023-08-13T01:17:38.874Z,20.82
2023-08-13T01:20:09.490Z,20.71
2023-08-13T01:22:48.353Z,20.50
2023-08-13T01:25:18.780Z,20.86
2023-08-13T01:27:54.508Z,20.67
2023-08-13T01:30:31.482Z,20.64
2023-08-13T01:33:04.385Z,20.75
2023-08-13T01:35:34.786Z,20.56
2023-08-13T01:38:06.704Z,20.41
2023-08-13T01:40:35.332Z,20.48
2023-08-13T01:43:04.088Z,20.56
2023-08-13T01:45:33.848Z,20.57
2023-08-13T01:48:02.296Z,20.61
2023-08-13T01:50:32.229Z,20.37
2023-08-13T01:53:00.672Z,20.37
2023-08-13T01:55:30.622Z,20.39
2023-08-13T01:57:59.428Z,20.31
2023-08-13T02:00:27.772Z,20.15
2023-08-13T02:02:57.172Z,20.62
2023-08-13T02:05:25.541Z,20.17
2023-08-13T02:07:54.532Z,20.25
2023-08-13T02:10:22.874Z,20.14
2023-08-13T02:12:52.552Z,20.14
2023-08-13T02:15:21.009Z,20.15
2023-08-13T02:17:49.448Z,20.07
2023-08-13T02:20:19.840Z,20.32
2023-08-13T02:22:48.438Z,20.02
2023-08-13T02:25:17.295Z,20.40
2023-08-13T02:27:45.761Z,20.32
2023-08-13T02:30:17.004Z,20.27
2023-08-13T02:32:45.466Z,20.35
2023-08-13T02:35:14.081Z,20.32
2023-08-13T02:37:43.285Z,20.55
2023-08-13T02:40:13.083Z,20.66
2023-08-13T02:42:41.816Z,20.78
2023-08-13T02:45:11.280Z,20.38
2023-08-13T02:47:41.198Z,20.89
2023-08-13T02:50:11.224Z,20.25
2023-08-13T02:52:39.777Z,20.75
2023-08-13T02:55:09.106Z,20.47
2023-08-13T02:57:43.414Z,20.62
2023-08-13T03:00:16.405Z,20.44
2023-08-13T03:02:46.199Z,20.34
2023-08-13T03:05:14.625Z,20.50
2023-08-13T03:07:43.055Z,20.42
2023-08-13T03:10:12.001Z,20.43
2023-08-13T03:12:40.589Z,20.56
2023-08-13T03:15:10.524Z,20.56
2023-08-13T03:17:39.016Z,20.38
2023-08-13T03:20:10.759Z,20.38
2023-08-13T03:22:39.174Z,20.08
2023-08-13T03:25:08.570Z,20.59
2023-08-13T03:27:36.985Z,20.15
2023-08-13T03:30:06.406Z,20.43
2023-08-13T03:32:34.746Z,20.31
2023-08-13T03:35:03.564Z,20.18
2023-08-13T03:37:33.647Z,20.00
2023-08-13T03:40:02.141Z,20.16
2023-08-13T03:42:32.171Z,20.12
2023-08-13T03:45:02.422Z,20.07
2023-08-13T03:47:30.870Z,20.31
2023-08-13T03:49:59.281Z,19.98
2023-08-13T03:52:27.664Z,20.05
2023-08-13T03:54:57.614Z,20.06
2023-08-13T03:57:26.016Z,19.99
2023-08-13T03:59:54.399Z,19.94
2023-08-13T04:02:22.944Z,19.94
2023-08-13T04:04:51.346Z,20.22
2023-08-13T04:07:20.425Z,19.90
2023-08-13T04:09:48.988Z,19.73
2023-08-13T04:12:18.789Z,19.66
2023-08-13T04:14:47.210Z,19.73
2023-08-13T04:17:15.618Z,19.65
2023-08-13T04:19:43.919Z,19.84
2023-08-13T04:22:12.661Z,19.82
2023-08-13T04:24:41.658Z,20.09
2023-08-13T04:27:10.078Z,19.82
2023-08-13T04:29:39.829Z,19.69
2023-08-13T04:32:08.630Z,19.68
2023-08-13T04:34:37.139Z,20.08
2023-08-13T04:37:06.043Z,19.71
2023-08-13T04:39:34.719Z,19.57
2023-08-13T04:42:06.061Z,19.98
2023-08-13T04:44:34.517Z,20.07
2023-08-13T04:47:04.243Z,19.67
2023-08-13T04:49:32.842Z,19.76
2023-08-13T04:52:01.096Z,19.59
2023-08-13T04:54:29.693Z,19.69
2023-08-13T04:56:58.204Z,19.48
2023-08-13T04:59:26.771Z,19.44
2023-08-13T05:01:55.145Z,19.98
2023-08-13T05:04:25.278Z,19.72
2023-08-13T05:06:53.752Z,20.16
2023-08-13T05:09:22.198Z,19.88
2023-08-13T05:11:50.882Z,20.04
2023-08-13T05:14:19.460Z,20.16
2023-08-13T05:16:48.114Z,20.22
2023-08-13T05:19:17.157Z,20.17
2023-08-13T05:21:47.212Z,20.07
2023-08-13T05:24:15.656Z,20.01
2023-08-13T05:26:44.338Z,19.79
2023-08-13T05:29:12.736Z,19.75
2023-08-13T05:31:41.089Z,20.30
2023-08-13T05:34:09.586Z,20.35
2023-08-13T05:36:38.081Z,20.11
2023-08-13T05:39:09.019Z,20.34
2023-08-13T05:41:37.412Z,20.23
2023-08-13T05:44:06.296Z,20.27
2023-08-13T05:46:35.176Z,20.04
2023-08-13T05:49:03.686Z,20.24
2023-08-13T05:51:32.261Z,20.26
2023-08-13T05:54:00.615Z,19.98
2023-08-13T05:56:31.861Z,20.24
2023-08-13T05:59:00.647Z,20.64
2023-08-13T06:01:29.751Z,20.46
2023-08-13T06:03:58.284Z,20.69
2023-08-13T06:06:29.873Z,20.73
2023-08-13T06:08:58.456Z,20.58
2023-08-13T06:11:27.043Z,20.62
2023-08-13T06:13:58.947Z,21.04
2023-08-13T06:16:27.523Z,21.18
2023-08-13T06:18:56.381Z,21.19
2023-08-13T06:21:24.883Z,21.51
2023-08-13T06:23:56.260Z,21.26
2023-08-13T06:26:24.718Z,21.08
2023-08-13T06:28:56.067Z,21.34
2023-08-13T06:31:41.436Z,21.24
2023-08-13T06:34:11.781Z,21.87
2023-08-13T06:36:40.521Z,22.05
2023-08-13T06:39:09.555Z,21.79
2023-08-13T06:41:37.895Z,21.80
2023-08-13T06:44:08.135Z,22.12
2023-08-13T06:46:37.971Z,22.02
2023-08-13T06:49:09.221Z,22.15
2023-08-13T06:51:37.762Z,22.70
2023-08-13T06:54:07.313Z,22.44
2023-08-13T06:56:40.101Z,22.30
2023-08-13T06:59:08.546Z,22.65
2023-08-13T07:01:38.479Z,23.01
2023-08-13T07:04:08.263Z,23.01
2023-08-13T07:06:38.799Z,23.04
2023-08-13T07:09:08.226Z,22.77
2023-08-13T07:11:37.613Z,22.85
2023-08-13T07:14:06.312Z,23.17
2023-08-13T07:16:37.190Z,23.25
2023-08-13T07:19:09.490Z,23.19
2023-08-13T07:21:38.632Z,23.05
2023-08-13T07:24:07.997Z,22.92
2023-08-13T07:26:39.235Z,23.37
2023-08-13T07:29:08.764Z,23.58
2023-08-13T07:31:37.302Z,23.18
2023-08-13T07:34:07.372Z,23.88
2023-08-13T07:36:36.100Z,23.33
2023-08-13T07:39:04.922Z,23.15
2023-08-13T07:41:33.630Z,23.63
2023-08-13T07:44:02.214Z,23.88
2023-08-13T07:46:30.682Z,23.89
2023-08-13T07:48:59.262Z,23.82
2023-08-13T07:51:29.181Z,24.04
2023-08-13T07:54:06.796Z,23.97
2023-08-13T07:56:35.272Z,23.94
2023-08-13T07:59:03.763Z,24.29
2023-08-13T08:01:32.088Z,23.98
2023-08-13T08:04:00.690Z,24.11
2023-08-13T08:06:31.356Z,24.19
2023-08-13T08:09:00.112Z,24.23
2023-08-13T08:11:29.752Z,23.97
2023-08-13T08:13:58.195Z,24.04
2023-08-13T08:16:26.999Z,24.02
2023-08-13T08:18:55.684Z,24.67
2023-08-13T08:21:24.402Z,24.88
2023-08-13T08:23:54.488Z,25.10
2023-08-13T08:26:22.886Z,25.10
2023-08-13T08:28:51.470Z,25.30
2023-08-13T08:31:19.987Z,25.24
2023-08-13T08:33:50.775Z,24.79
2023-08-13T08:36:19.694Z,24.57
2023-08-13T08:38:48.161Z,25.45
2023-08-13T08:41:22.684Z,25.08
2023-08-13T08:43:51.890Z,25.07
2023-08-13T08:46:24.777Z,25.54
2023-08-13T08:48:53.340Z,25.31
2023-08-13T08:51:23.752Z,25.57
2023-08-13T08:53:56.333Z,25.58
2023-08-13T08:56:27.401Z,25.86
2023-08-13T08:58:56.137Z,26.02
2023-08-13T09:01:24.871Z,26.40
2023-08-13T09:03:53.450Z,26.25
2023-08-13T09:06:22.836Z,26.46
2023-08-13T09:08:52.539Z,26.25
2023-08-13T09:11:37.131Z,26.31
2023-08-13T09:15:26.885Z,26.48
2023-08-13T09:17:55.416Z,26.25
2023-08-13T09:20:24.041Z,26.18
2023-08-13T09:22:53.214Z,26.24
2023-08-13T09:25:22.761Z,26.73
2023-08-13T09:27:53.276Z,26.71
2023-08-13T09:30:29.414Z,26.62
2023-08-13T09:33:03.598Z,26.38
2023-08-13T09:35:34.120Z,26.49
2023-08-13T09:38:02.521Z,26.66
2023-08-13T09:40:31.061Z,25.62
2023-08-13T09:43:02.347Z,25.95
2023-08-13T09:45:34.543Z,25.75
2023-08-13T09:48:07.164Z,26.15
2023-08-13T09:50:43.830Z,25.90
2023-08-13T09:53:21.747Z,26.21
2023-08-13T09:55:56.648Z,26.48
2023-08-13T09:58:30.720Z,26.11
2023-08-13T10:01:00.143Z,25.88
2023-08-13T10:03:29.593Z,26.14
2023-08-13T10:05:58.328Z,26.27
2023-08-13T10:08:27.567Z,26.17
2023-08-13T10:10:56.255Z,25.83
2023-08-13T10:13:28.169Z,26.28
2023-08-13T10:15:57.085Z,26.39
2023-08-13T10:18:29.480Z,26.56
2023-08-13T10:20:57.854Z,26.92
2023-08-13T10:23:28.522Z,27.15
2023-08-13T10:25:57.206Z,27.20
2023-08-13T10:28:32.556Z,26.94
2023-08-13T10:31:35.204Z,27.14
2023-08-13T10:34:12.868Z,27.19
2023-08-13T10:36:52.737Z,27.23
2023-08-13T10:39:39.276Z,27.03
2023-08-13T10:42:50.734Z,26.39
2023-08-13T10:45:22.497Z,27.06
2023-08-13T10:47:53.955Z,27.61
2023-08-13T10:50:31.710Z,26.98
2023-08-13T10:53:10.101Z,27.12
2023-08-13T10:55:41.747Z,27.62
2023-08-13T10:58:23.026Z,27.53
2023-08-13T11:00:52.860Z,27.42
2023-08-13T11:03:23.675Z,27.69
2023-08-13T11:05:53.588Z,27.90
2023-08-13T11:08:37.291Z,28.14
2023-08-13T11:11:10.650Z,28.46
2023-08-13T11:13:39.199Z,28.53
2023-08-13T11:16:09.178Z,28.30
2023-08-13T11:18:38.419Z,28.40
2023-08-13T11:21:07.204Z,27.62
2023-08-13T11:23:35.873Z,27.90
2023-08-13T11:26:07.005Z,28.62
2023-08-13T11:28:35.901Z,27.82
2023-08-13T11:31:04.386Z,27.85
2023-08-13T11:33:34.272Z,27.64
2023-08-13T11:36:03.392Z,27.21
2023-08-13T11:38:32.030Z,27.57
2023-08-13T11:41:00.573Z,27.49
2023-08-13T11:43:30.994Z,27.79
2023-08-13T11:45:59.724Z,28.12
2023-08-13T11:48:31.020Z,27.98
2023-08-13T11:51:23.606Z,28.47
2023-08-13T11:53:52.622Z,28.62
2023-08-13T11:56:22.066Z,28.83
2023-08-13T11:58:51.909Z,28.80
2023-08-13T12:01:20.511Z,28.32
2023-08-13T12:03:51.469Z,29.12
2023-08-13T12:06:24.686Z,29.05
2023-08-13T12:08:55.127Z,28.22
2023-08-13T12:11:23.506Z,29.37
2023-08-13T12:13:54.137Z,29.06
2023-08-13T12:16:22.778Z,29.11
2023-08-13T12:18:51.329Z,29.28
2023-08-13T12:21:19.679Z,28.82
2023-08-13T12:23:49.580Z,29.72
2023-08-13T12:26:18.064Z,29.30
2023-08-13T12:28:49.154Z,28.91
2023-08-13T12:31:17.500Z,29.22
2023-08-13T12:33:45.868Z,28.63
2023-08-13T12:36:14.812Z,29.13
2023-08-13T12:38:52.543Z,30.01
2023-08-13T12:41:30.409Z,29.77
2023-08-13T12:44:08.300Z,29.59
2023-08-13T12:46:44.433Z,29.84
2023-08-13T12:49:12.848Z,29.27
2023-08-13T12:51:41.187Z,29.67
2023-08-13T12:54:10.955Z,29.37
2023-08-13T12:56:39.545Z,29.30
2023-08-13T12:59:07.873Z,28.52
2023-08-13T13:01:36.250Z,28.80
2023-08-13T13:04:05.187Z,28.56
2023-08-13T13:06:33.474Z,28.42
2023-08-13T13:09:01.993Z,28.91
2023-08-13T13:11:31.827Z,28.95
2023-08-13T13:14:00.286Z,28.96
2023-08-13T13:16:28.929Z,29.13
2023-08-13T13:18:57.265Z,28.89
2023-08-13T13:21:25.785Z,28.66
2023-08-13T13:23:54.606Z,28.77
2023-08-13T13:26:22.928Z,28.54
2023-08-13T13:28:52.878Z,29.10
2023-08-13T13:31:21.228Z,29.63
2023-08-13T13:33:50.503Z,29.64
2023-08-13T13:36:19.799Z,29.76
2023-08-13T13:38:48.082Z,29.72
2023-08-13T13:41:16.600Z,29.30
2023-08-13T13:43:44.894Z,29.04
2023-08-13T13:46:14.731Z,29.12
2023-08-13T13:48:43.227Z,28.84
2023-08-13T13:51:11.556Z,29.08
2023-08-13T13:53:41.223Z,28.88
2023-08-13T13:56:09.707Z,28.84
2023-08-13T13:58:38.179Z,29.98
2023-08-13T14:01:06.643Z,29.59
2023-08-13T14:03:36.626Z,30.13
2023-08-13T14:06:05.176Z,29.59
2023-08-13T14:08:33.663Z,29.50
2023-08-13T14:11:04.960Z,29.15
2023-08-13T14:13:35.206Z,28.89
2023-08-13T14:16:05.055Z,28.95
2023-08-13T14:18:33.575Z,27.31
2023-08-13T14:21:03.250Z,27.30
2023-08-13T14:23:31.913Z,26.93
2023-08-13T14:26:00.418Z,26.51
2023-08-13T14:28:29.090Z,26.75
2023-08-13T14:30:57.464Z,26.79
2023-08-13T14:33:25.992Z,26.69
2023-08-13T14:35:54.721Z,26.83
2023-08-13T14:38:25.170Z,26.66
2023-08-13T14:40:57.442Z,26.79
2023-08-13T14:43:25.914Z,26.54
2023-08-13T14:45:54.457Z,26.55
2023-08-13T14:48:22.945Z,27.21
2023-08-13T14:50:51.484Z,27.32
2023-08-13T14:53:19.778Z,27.81
2023-08-13T14:55:52.291Z,28.22
2023-08-13T14:58:20.676Z,28.05
2023-08-13T15:00:49.272Z,28.10
2023-08-13T15:03:17.843Z,28.18
2023-08-13T15:05:46.134Z,28.63
2023-08-13T15:08:14.513Z,29.19
2023-08-13T15:10:43.059Z,29.26
2023-08-13T15:13:12.591Z,29.31
2023-08-13T15:15:41.308Z,29.30
2023-08-13T15:18:09.738Z,30.40
2023-08-13T15:20:38.332Z,30.20
2023-08-13T15:23:07.052Z,30.35
2023-08-13T15:25:54.676Z,30.03
2023-08-13T15:28:25.803Z,30.72
2023-08-13T15:30:56.670Z,31.46
2023-08-13T15:33:28.149Z,31.88
2023-08-13T15:35:58.897Z,31.45
2023-08-13T15:38:30.044Z,30.68
2023-08-13T15:41:00.578Z,31.60
2023-08-13T15:43:33.386Z,31.09
2023-08-13T15:46:01.712Z,31.36
2023-08-13T15:48:30.252Z,31.57
2023-08-13T15:50:58.651Z,32.31
2023-08-13T15:53:27.004Z,32.79
2023-08-13T15:55:55.581Z,32.96
2023-08-13T15:58:24.090Z,33.56
2023-08-13T16:00:56.347Z,33.71
2023-08-13T16:03:24.940Z,32.99
2023-08-13T16:05:53.224Z,32.25
2023-08-13T16:08:21.807Z,32.18
2023-08-13T16:10:58.581Z,32.96
2023-08-13T16:13:28.664Z,31.73
2023-08-13T16:16:01.312Z,31.94
2023-08-13T16:18:32.759Z,31.86
2023-08-13T16:21:01.013Z,31.69
2023-08-13T16:23:29.266Z,31.13
2023-08-13T16:25:58.618Z,30.56
2023-08-13T16:28:27.258Z,31.12
2023-08-13T16:30:57.235Z,30.15
2023-08-13T16:33:25.775Z,30.53
2023-08-13T16:35:54.239Z,29.57
2023-08-13T16:38:22.575Z,29.98
2023-08-13T16:40:51.818Z,29.12
2023-08-13T16:43:20.304Z,29.54
2023-08-13T16:45:48.812Z,29.44
2023-08-13T16:48:18.557Z,29.57
2023-08-13T16:50:47.161Z,29.42
2023-08-13T16:53:15.575Z,28.75
2023-08-13T16:55:44.878Z,29.03
2023-08-13T16:58:13.049Z,28.46
2023-08-13T17:00:41.527Z,28.70
2023-08-13T17:03:10.404Z,28.38
2023-08-13T17:05:40.730Z,27.55
2023-08-13T17:08:09.215Z,28.08
2023-08-13T17:10:37.582Z,27.83
2023-08-13T17:13:06.267Z,27.78
2023-08-13T17:15:34.796Z,27.48
2023-08-13T17:18:03.171Z,27.49
2023-08-13T17:20:31.589Z,27.62
2023-08-13T17:23:01.318Z,27.02
2023-08-13T17:25:29.893Z,27.20
2023-08-13T17:27:59.532Z,27.09
2023-08-13T17:30:29.156Z,26.50
2023-08-13T17:32:58.464Z,26.56
2023-08-13T17:35:26.847Z,26.64
2023-08-13T17:37:55.263Z,26.58
2023-08-13T17:40:25.295Z,25.96
2023-08-13T17:42:53.717Z,26.32
2023-08-13T17:45:22.246Z,26.23
2023-08-13T17:47:52.012Z,25.98
2023-08-13T17:50:20.755Z,25.91
2023-08-13T17:52:49.266Z,26.06
2023-08-13T17:55:18.072Z,25.89
2023-08-13T17:57:50.462Z,25.59
2023-08-13T18:00:18.886Z,25.66
2023-08-13T18:02:47.412Z,25.68
2023-08-13T18:05:15.938Z,25.63
2023-08-13T18:07:44.427Z,25.47
2023-08-13T18:10:12.740Z,25.74
2023-08-13T18:12:41.196Z,25.61
2023-08-13T18:15:11.536Z,25.14
2023-08-13T18:17:40.027Z,25.41
2023-08-13T18:20:10.636Z,25.20
2023-08-13T18:22:42.796Z,25.26
2023-08-13T18:25:12.812Z,25.20
2023-08-13T18:27:41.156Z,25.18
2023-08-13T18:30:12.138Z,24.95
2023-08-13T18:32:40.774Z,25.08
2023-08-13T18:35:10.137Z,24.85
2023-08-13T18:37:38.600Z,24.93
2023-08-13T18:40:10.820Z,24.86
2023-08-13T18:42:39.647Z,24.78
2023-08-13T18:45:10.838Z,24.83
2023-08-13T18:47:39.112Z,24.70
2023-08-13T18:50:09.321Z,24.61
2023-08-13T18:52:38.237Z,24.54
2023-08-13T18:55:10.120Z,24.38
2023-08-13T18:57:39.449Z,24.32
2023-08-13T19:00:11.559Z,24.23
2023-08-13T19:02:40.661Z,24.23
2023-08-13T19:05:09.998Z,24.09
2023-08-13T19:07:38.926Z,23.97
2023-08-13T19:10:09.086Z,23.97
2023-08-13T19:12:37.497Z,23.68
2023-08-13T19:15:07.141Z,23.65
2023-08-13T19:17:36.807Z,23.60
2023-08-13T19:20:06.434Z,23.43
2023-08-13T19:22:35.033Z,23.32
2023-08-13T19:25:03.489Z,23.26
2023-08-13T19:27:31.872Z,23.17
2023-08-13T19:30:00.371Z,22.98
2023-08-13T19:32:29.098Z,22.91
2023-08-13T19:34:58.779Z,22.76
2023-08-13T19:37:27.340Z,22.65
2023-08-13T19:39:55.947Z,22.62
2023-08-13T19:42:24.419Z,22.57
2023-08-13T19:44:53.829Z,22.49
2023-08-13T19:47:22.180Z,22.44
2023-08-13T19:49:50.771Z,22.26
2023-08-13T19:52:20.596Z,22.32
2023-08-13T19:54:49.061Z,22.28
2023-08-13T19:57:17.558Z,22.13
2023-08-13T19:59:45.814Z,22.05
2023-08-13T20:02:14.294Z,21.93
2023-08-13T20:04:42.818Z,22.16
2023-08-13T20:07:11.195Z,21.94
2023-08-13T20:09:43.747Z,21.87
2023-08-13T20:12:12.236Z,21.82
2023-08-13T20:14:40.652Z,21.78
2023-08-13T20:17:09.342Z,21.64
2023-08-13T20:19:37.783Z,21.62
2023-08-13T20:22:07.479Z,21.60
2023-08-13T20:24:36.068Z,21.63
2023-08-13T20:27:06.077Z,21.36
2023-08-13T20:29:34.562Z,21.44
2023-08-13T20:32:03.045Z,21.42
2023-08-13T20:34:31.419Z,21.35
2023-08-13T20:37:00.105Z,21.35
2023-08-13T20:39:29.010Z,21.17
2023-08-13T20:41:57.612Z,21.02
2023-08-13T20:44:27.569Z,20.95
2023-08-13T20:46:56.191Z,20.99
2023-08-13T20:49:25.452Z,20.94
2023-08-13T20:51:54.400Z,20.79
2023-08-13T20:54:26.114Z,20.65
2023-08-13T20:56:55.741Z,20.82
2023-08-13T20:59:24.227Z,20.88
2023-08-13T21:01:54.138Z,20.92
2023-08-13T21:04:22.667Z,20.75
2023-08-13T21:06:51.275Z,20.80
2023-08-13T21:09:19.793Z,20.80
2023-08-13T21:11:48.221Z,20.85
2023-08-13T21:14:16.544Z,20.83
2023-08-13T21:16:44.988Z,20.87
2023-08-13T21:19:14.863Z,20.83
2023-08-13T21:21:43.460Z,20.85
2023-08-13T21:24:12.019Z,20.98
2023-08-13T21:26:40.436Z,20.95
2023-08-13T21:29:08.872Z,20.95
2023-08-13T21:31:37.291Z,20.92
2023-08-13T21:34:06.130Z,20.84
2023-08-13T21:36:36.193Z,20.71
2023-08-13T21:39:05.044Z,20.69
2023-08-13T21:41:33.336Z,20.67
2023-08-13T21:44:01.694Z,20.65
2023-08-13T21:46:30.129Z,20.64
2023-08-13T21:48:58.579Z,20.58
2023-08-13T21:51:27.022Z,20.59
2023-08-13T21:53:57.278Z,20.55
2023-08-13T21:56:25.646Z,20.55
2023-08-13T21:58:53.912Z,20.51
2023-08-13T22:01:22.359Z,20.38
2023-08-13T22:03:50.826Z,20.62
2023-08-13T22:06:19.260Z,20.55
2023-08-13T22:08:47.755Z,20.50
2023-08-13T22:11:17.493Z,20.43
2023-08-13T22:13:46.145Z,20.38
2023-08-13T22:16:14.703Z,20.35
2023-08-13T22:18:44.010Z,20.33
2023-08-13T22:21:12.515Z,20.36
2023-08-13T22:23:41.091Z,20.35
2023-08-13T22:26:18.126Z,20.31
2023-08-13T22:28:48.906Z,20.11
2023-08-13T22:31:17.413Z,20.10
2023-08-13T22:33:45.786Z,20.08
2023-08-13T22:36:16.416Z,20.07
2023-08-13T22:38:45.093Z,20.07
2023-08-13T22:41:13.612Z,20.06
2023-08-13T22:43:42.000Z,20.04
2023-08-13T22:46:11.803Z,20.03
2023-08-13T22:48:40.268Z,19.91
2023-08-13T22:51:08.637Z,19.90
2023-08-13T22:53:37.427Z,19.94
2023-08-13T22:56:06.402Z,20.00
2023-08-13T22:58:34.780Z,19.94
2023-08-13T23:01:04.006Z,19.83
2023-08-13T23:03:33.823Z,19.97
2023-08-13T23:06:02.309Z,20.05
2023-08-13T23:08:30.850Z,20.02
2023-08-13T23:10:59.476Z,20.02
2023-08-13T23:13:27.874Z,19.95
2023-08-13T23:15:56.301Z,19.78
2023-08-13T23:18:25.019Z,19.89
2023-08-13T23:20:55.111Z,19.81
2023-08-13T23:23:23.596Z,19.65
2023-08-13T23:25:51.953Z,19.74
2023-08-13T23:28:20.496Z,19.79
2023-08-13T23:30:49.150Z,19.80
2023-08-13T23:33:18.018Z,19.83
2023-08-13T23:35:46.720Z,19.85
2023-08-13T23:38:16.751Z,19.87
2023-08-13T23:40:46.040Z,19.82
2023-08-13T23:43:14.402Z,19.81
2023-08-13T23:45:44.513Z,19.89
2023-08-13T23:48:13.041Z,19.74
2023-08-13T23:50:55.183Z,19.78
2023-08-13T23:53:26.112Z,19.76
2023-08-13T23:55:54.435Z,19.81
2023-08-13T23:58:23.525Z,19.75
